sensor_id;sensor_type;location;lat;lon;timestamp;temperature;humidity
23721;DHT22;42950;52.134;5.578;2024-03-06T00:00:57;8.00;99.90
23721;DHT22;42950;52.134;5.578;2024-03-06T00:03:22;8.00;99.90
23721;DHT22;42950;52.134;5.578;2024-03-06T00:05:49;7.90;99.90
23721;DHT22;42950;52.134;5.578;2024-03-06T00:08:15;7.90;99.90
23721;DHT22;42950;52.134;5.578;2024-03-06T00:10:41;7.80;99.90
23721;DHT22;42950;52.134;5.578;2024-03-06T00:13:07;7.80;99.90
23721;DHT22;42950;52.134;5.578;2024-03-06T00:15:33;7.90;99.90
23721;DHT22;42950;52.134;5.578;2024-03-06T00:17:59;7.90;99.90
23721;DHT22;42950;52.134;5.578;2024-03-06T00:20:25;7.90;99.90
23721;DHT22;42950;52.134;5.578;2024-03-06T00:22:50;7.90;99.90
23721;DHT22;42950;52.134;5.578;2024-03-06T00:25:16;7.90;99.90
23721;DHT22;42950;52.134;5.578;2024-03-06T00:27:41;7.80;99.90
23721;DHT22;42950;52.134;5.578;2024-03-06T00:30:07;7.80;99.90
23721;DHT22;42950;52.134;5.578;2024-03-06T00:32:33;7.80;99.90
23721;DHT22;42950;52.134;5.578;2024-03-06T00:34:59;7.80;99.90
23721;DHT22;42950;52.134;5.578;2024-03-06T00:37:24;7.80;99.90
23721;DHT22;42950;52.134;5.578;2024-03-06T00:39:50;7.80;99.90
23721;DHT22;42950;52.134;5.578;2024-03-06T00:42:15;7.80;99.90
23721;DHT22;42950;52.134;5.578;2024-03-06T00:44:41;7.80;99.90
23721;DHT22;42950;52.134;5.578;2024-03-06T00:47:07;7.80;99.90
23721;DHT22;42950;52.134;5.578;2024-03-06T00:49:32;7.70;99.90
23721;DHT22;42950;52.134;5.578;2024-03-06T00:51:58;7.70;99.90
23721;DHT22;42950;52.134;5.578;2024-03-06T00:54:23;7.70;99.90
23721;DHT22;42950;52.134;5.578;2024-03-06T00:56:49;7.70;99.90
23721;DHT22;42950;52.134;5.578;2024-03-06T00:59:15;7.70;99.90
23721;DHT22;42950;52.134;5.578;2024-03-06T01:01:41;7.60;99.90
23721;DHT22;42950;52.134;5.578;2024-03-06T01:04:07;7.70;99.90
23721;DHT22;42950;52.134;5.578;2024-03-06T01:06:32;7.80;99.90
23721;DHT22;42950;52.134;5.578;2024-03-06T01:08:58;7.80;99.90
23721;DHT22;42950;52.134;5.578;2024-03-06T01:11:24;7.80;99.90
23721;DHT22;42950;52.134;5.578;2024-03-06T01:13:51;7.80;99.90
23721;DHT22;42950;52.134;5.578;2024-03-06T01:16:17;7.90;99.90
23721;DHT22;42950;52.134;5.578;2024-03-06T01:18:43;7.80;99.90
23721;DHT22;42950;52.134;5.578;2024-03-06T01:21:09;7.70;99.90
23721;DHT22;42950;52.134;5.578;2024-03-06T01:23:34;7.70;99.90
23721;DHT22;42950;52.134;5.578;2024-03-06T01:26:00;7.80;99.90
23721;DHT22;42950;52.134;5.578;2024-03-06T01:28:25;7.80;99.90
23721;DHT22;42950;52.134;5.578;2024-03-06T01:30:51;7.70;99.90
23721;DHT22;42950;52.134;5.578;2024-03-06T01:33:17;7.70;99.90
23721;DHT22;42950;52.134;5.578;2024-03-06T01:35:42;7.70;99.90
23721;DHT22;42950;52.134;5.578;2024-03-06T01:38:08;7.70;99.90
23721;DHT22;42950;52.134;5.578;2024-03-06T01:40:35;7.70;99.90
23721;DHT22;42950;52.134;5.578;2024-03-06T01:43:01;7.60;99.90
23721;DHT22;42950;52.134;5.578;2024-03-06T01:45:27;7.60;99.90
23721;DHT22;42950;52.134;5.578;2024-03-06T01:47:52;7.70;99.90
23721;DHT22;42950;52.134;5.578;2024-03-06T01:50:18;7.60;99.90
23721;DHT22;42950;52.134;5.578;2024-03-06T01:52:44;7.60;99.90
23721;DHT22;42950;52.134;5.578;2024-03-06T01:55:12;7.60;99.90
23721;DHT22;42950;52.134;5.578;2024-03-06T01:57:38;7.60;99.90
23721;DHT22;42950;52.134;5.578;2024-03-06T02:00:05;7.70;99.90
23721;DHT22;42950;52.134;5.578;2024-03-06T02:02:33;7.70;99.90
23721;DHT22;42950;52.134;5.578;2024-03-06T02:04:59;7.70;99.90
23721;DHT22;42950;52.134;5.578;2024-03-06T02:07:25;7.70;99.90
23721;DHT22;42950;52.134;5.578;2024-03-06T02:09:51;7.70;99.90
23721;DHT22;42950;52.134;5.578;2024-03-06T02:12:17;7.70;99.90
23721;DHT22;42950;52.134;5.578;2024-03-06T02:14:43;7.70;99.90
23721;DHT22;42950;52.134;5.578;2024-03-06T02:17:09;7.70;99.90
23721;DHT22;42950;52.134;5.578;2024-03-06T02:19:39;7.70;99.90
23721;DHT22;42950;52.134;5.578;2024-03-06T02:22:06;7.70;99.90
23721;DHT22;42950;52.134;5.578;2024-03-06T02:24:32;7.70;99.90
23721;DHT22;42950;52.134;5.578;2024-03-06T02:26:57;7.80;99.90
23721;DHT22;42950;52.134;5.578;2024-03-06T02:29:26;7.70;99.90
23721;DHT22;42950;52.134;5.578;2024-03-06T02:31:51;7.70;99.90
23721;DHT22;42950;52.134;5.578;2024-03-06T02:34:17;7.70;99.90
23721;DHT22;42950;52.134;5.578;2024-03-06T02:36:43;7.60;99.90
23721;DHT22;42950;52.134;5.578;2024-03-06T02:39:08;7.70;99.90
23721;DHT22;42950;52.134;5.578;2024-03-06T02:41:35;7.70;99.90
23721;DHT22;42950;52.134;5.578;2024-03-06T02:44:01;7.70;99.90
23721;DHT22;42950;52.134;5.578;2024-03-06T02:46:28;7.70;99.90
23721;DHT22;42950;52.134;5.578;2024-03-06T02:48:53;7.60;99.90
23721;DHT22;42950;52.134;5.578;2024-03-06T02:51:20;7.60;99.90
23721;DHT22;42950;52.134;5.578;2024-03-06T02:53:46;7.60;99.90
23721;DHT22;42950;52.134;5.578;2024-03-06T02:56:18;7.50;99.90
23721;DHT22;42950;52.134;5.578;2024-03-06T02:58:44;7.50;99.90
23721;DHT22;42950;52.134;5.578;2024-03-06T03:01:10;7.40;99.90
23721;DHT22;42950;52.134;5.578;2024-03-06T03:03:36;7.30;99.90
23721;DHT22;42950;52.134;5.578;2024-03-06T03:06:01;7.30;99.90
23721;DHT22;42950;52.134;5.578;2024-03-06T03:08:28;7.30;99.90
23721;DHT22;42950;52.134;5.578;2024-03-06T03:10:53;7.30;99.90
23721;DHT22;42950;52.134;5.578;2024-03-06T03:13:19;7.20;99.90
23721;DHT22;42950;52.134;5.578;2024-03-06T03:15:44;7.20;99.90
23721;DHT22;42950;52.134;5.578;2024-03-06T03:18:10;7.10;99.90
23721;DHT22;42950;52.134;5.578;2024-03-06T03:20:35;7.10;99.90
23721;DHT22;42950;52.134;5.578;2024-03-06T03:23:02;7.00;99.90
23721;DHT22;42950;52.134;5.578;2024-03-06T03:25:27;7.00;99.90
23721;DHT22;42950;52.134;5.578;2024-03-06T03:27:53;7.00;99.90
23721;DHT22;42950;52.134;5.578;2024-03-06T03:30:18;7.00;99.90
23721;DHT22;42950;52.134;5.578;2024-03-06T03:32:47;6.90;99.90
23721;DHT22;42950;52.134;5.578;2024-03-06T03:35:13;6.90;99.90
23721;DHT22;42950;52.134;5.578;2024-03-06T03:37:39;6.80;99.90
23721;DHT22;42950;52.134;5.578;2024-03-06T03:40:06;6.70;99.90
23721;DHT22;42950;52.134;5.578;2024-03-06T03:42:32;6.60;99.90
23721;DHT22;42950;52.134;5.578;2024-03-06T03:44:58;6.60;99.90
23721;DHT22;42950;52.134;5.578;2024-03-06T03:47:24;6.50;99.90
23721;DHT22;42950;52.134;5.578;2024-03-06T03:49:50;6.50;99.90
23721;DHT22;42950;52.134;5.578;2024-03-06T03:52:15;6.50;99.90
23721;DHT22;42950;52.134;5.578;2024-03-06T03:54:41;6.50;99.90
23721;DHT22;42950;52.134;5.578;2024-03-06T03:57:07;6.40;99.90
23721;DHT22;42950;52.134;5.578;2024-03-06T03:59:33;6.30;99.90
23721;DHT22;42950;52.134;5.578;2024-03-06T04:01:59;6.30;99.90
23721;DHT22;42950;52.134;5.578;2024-03-06T04:04:25;6.20;99.90
23721;DHT22;42950;52.134;5.578;2024-03-06T04:06:50;6.20;99.90
23721;DHT22;42950;52.134;5.578;2024-03-06T04:09:16;6.20;99.90
23721;DHT22;42950;52.134;5.578;2024-03-06T04:11:42;6.20;99.90
23721;DHT22;42950;52.134;5.578;2024-03-06T04:14:08;6.10;99.90
23721;DHT22;42950;52.134;5.578;2024-03-06T04:16:34;6.10;99.90
23721;DHT22;42950;52.134;5.578;2024-03-06T04:19:00;6.10;99.90
23721;DHT22;42950;52.134;5.578;2024-03-06T04:21:26;6.00;99.90
23721;DHT22;42950;52.134;5.578;2024-03-06T04:23:51;6.00;99.90
23721;DHT22;42950;52.134;5.578;2024-03-06T04:26:17;6.00;99.90
23721;DHT22;42950;52.134;5.578;2024-03-06T04:28:43;5.90;99.90
23721;DHT22;42950;52.134;5.578;2024-03-06T04:31:09;5.90;99.90
23721;DHT22;42950;52.134;5.578;2024-03-06T04:33:35;5.80;99.90
23721;DHT22;42950;52.134;5.578;2024-03-06T04:36:02;5.80;99.90
23721;DHT22;42950;52.134;5.578;2024-03-06T04:38:28;5.80;99.90
23721;DHT22;42950;52.134;5.578;2024-03-06T04:40:54;5.80;99.90
23721;DHT22;42950;52.134;5.578;2024-03-06T04:43:20;5.70;99.90
23721;DHT22;42950;52.134;5.578;2024-03-06T04:45:45;5.70;99.90
23721;DHT22;42950;52.134;5.578;2024-03-06T04:48:12;5.70;99.90
23721;DHT22;42950;52.134;5.578;2024-03-06T04:50:38;5.60;99.90
23721;DHT22;42950;52.134;5.578;2024-03-06T04:53:03;5.60;99.90
23721;DHT22;42950;52.134;5.578;2024-03-06T04:55:29;5.60;99.90
23721;DHT22;42950;52.134;5.578;2024-03-06T04:57:56;5.50;99.90
23721;DHT22;42950;52.134;5.578;2024-03-06T05:00:22;5.60;99.90
23721;DHT22;42950;52.134;5.578;2024-03-06T05:02:47;5.60;99.90
23721;DHT22;42950;52.134;5.578;2024-03-06T05:05:14;5.50;99.90
23721;DHT22;42950;52.134;5.578;2024-03-06T05:07:40;5.50;99.90
23721;DHT22;42950;52.134;5.578;2024-03-06T05:10:06;5.40;99.90
23721;DHT22;42950;52.134;5.578;2024-03-06T05:12:33;5.40;99.90
23721;DHT22;42950;52.134;5.578;2024-03-06T05:14:59;5.40;99.90
23721;DHT22;42950;52.134;5.578;2024-03-06T05:17:25;5.20;99.90
23721;DHT22;42950;52.134;5.578;2024-03-06T05:19:51;5.20;99.90
23721;DHT22;42950;52.134;5.578;2024-03-06T05:22:17;5.20;99.90
23721;DHT22;42950;52.134;5.578;2024-03-06T05:24:43;5.20;99.90
23721;DHT22;42950;52.134;5.578;2024-03-06T05:27:09;5.10;99.90
23721;DHT22;42950;52.134;5.578;2024-03-06T05:29:42;5.00;99.90
23721;DHT22;42950;52.134;5.578;2024-03-06T05:32:08;5.00;99.90
23721;DHT22;42950;52.134;5.578;2024-03-06T05:34:34;5.00;99.90
23721;DHT22;42950;52.134;5.578;2024-03-06T05:37:00;4.90;99.90
23721;DHT22;42950;52.134;5.578;2024-03-06T05:39:27;4.90;99.90
23721;DHT22;42950;52.134;5.578;2024-03-06T05:41:55;4.90;99.90
23721;DHT22;42950;52.134;5.578;2024-03-06T05:44:20;4.80;99.90
23721;DHT22;42950;52.134;5.578;2024-03-06T05:46:46;4.80;99.90
23721;DHT22;42950;52.134;5.578;2024-03-06T05:49:13;4.80;99.90
23721;DHT22;42950;52.134;5.578;2024-03-06T05:51:39;4.70;99.90
23721;DHT22;42950;52.134;5.578;2024-03-06T05:54:04;4.70;99.90
23721;DHT22;42950;52.134;5.578;2024-03-06T05:56:34;4.70;99.90
23721;DHT22;42950;52.134;5.578;2024-03-06T05:58:59;4.70;99.90
23721;DHT22;42950;52.134;5.578;2024-03-06T06:01:30;4.60;99.90
23721;DHT22;42950;52.134;5.578;2024-03-06T06:03:56;4.50;99.90
23721;DHT22;42950;52.134;5.578;2024-03-06T06:06:21;4.60;99.90
23721;DHT22;42950;52.134;5.578;2024-03-06T06:08:48;4.50;99.90
23721;DHT22;42950;52.134;5.578;2024-03-06T06:11:13;4.50;99.90
23721;DHT22;42950;52.134;5.578;2024-03-06T06:13:39;4.40;99.90
23721;DHT22;42950;52.134;5.578;2024-03-06T06:16:05;4.40;99.90
23721;DHT22;42950;52.134;5.578;2024-03-06T06:18:31;4.40;99.90
23721;DHT22;42950;52.134;5.578;2024-03-06T06:20:58;4.40;99.90
23721;DHT22;42950;52.134;5.578;2024-03-06T06:23:24;4.40;99.90
23721;DHT22;42950;52.134;5.578;2024-03-06T06:25:49;4.40;99.90
23721;DHT22;42950;52.134;5.578;2024-03-06T06:28:15;4.30;99.90
23721;DHT22;42950;52.134;5.578;2024-03-06T06:30:40;4.30;99.90
23721;DHT22;42950;52.134;5.578;2024-03-06T06:33:07;4.30;99.90
23721;DHT22;42950;52.134;5.578;2024-03-06T06:35:33;4.20;99.90
23721;DHT22;42950;52.134;5.578;2024-03-06T06:38:00;4.20;99.90
23721;DHT22;42950;52.134;5.578;2024-03-06T06:40:26;4.30;99.90
23721;DHT22;42950;52.134;5.578;2024-03-06T06:42:53;4.20;99.90
23721;DHT22;42950;52.134;5.578;2024-03-06T06:45:20;4.30;99.90
23721;DHT22;42950;52.134;5.578;2024-03-06T06:47:48;4.30;99.90
23721;DHT22;42950;52.134;5.578;2024-03-06T06:50:14;4.40;99.90
23721;DHT22;42950;52.134;5.578;2024-03-06T06:52:40;4.40;99.90
23721;DHT22;42950;52.134;5.578;2024-03-06T06:55:06;4.40;99.90
23721;DHT22;42950;52.134;5.578;2024-03-06T06:57:32;4.40;99.90
23721;DHT22;42950;52.134;5.578;2024-03-06T07:00:02;4.40;99.90
23721;DHT22;42950;52.134;5.578;2024-03-06T07:02:36;4.40;99.90
23721;DHT22;42950;52.134;5.578;2024-03-06T07:05:02;4.40;99.90
23721;DHT22;42950;52.134;5.578;2024-03-06T07:07:29;4.50;99.90
23721;DHT22;42950;52.134;5.578;2024-03-06T07:09:55;4.50;99.90
23721;DHT22;42950;52.134;5.578;2024-03-06T07:12:21;4.50;99.90
23721;DHT22;42950;52.134;5.578;2024-03-06T07:14:47;4.50;99.90
23721;DHT22;42950;52.134;5.578;2024-03-06T07:17:13;4.60;99.90
23721;DHT22;42950;52.134;5.578;2024-03-06T07:19:38;4.60;99.90
23721;DHT22;42950;52.134;5.578;2024-03-06T07:22:05;4.70;99.90
23721;DHT22;42950;52.134;5.578;2024-03-06T07:24:30;4.70;99.90
23721;DHT22;42950;52.134;5.578;2024-03-06T07:26:56;4.70;99.90
23721;DHT22;42950;52.134;5.578;2024-03-06T07:29:21;4.70;99.90
23721;DHT22;42950;52.134;5.578;2024-03-06T07:31:47;4.80;99.90
23721;DHT22;42950;52.134;5.578;2024-03-06T07:34:13;4.70;99.90
23721;DHT22;42950;52.134;5.578;2024-03-06T07:36:40;4.80;99.90
23721;DHT22;42950;52.134;5.578;2024-03-06T07:39:06;4.80;99.90
23721;DHT22;42950;52.134;5.578;2024-03-06T07:41:32;4.90;99.90
23721;DHT22;42950;52.134;5.578;2024-03-06T07:43:59;4.90;99.90
23721;DHT22;42950;52.134;5.578;2024-03-06T07:46:29;4.90;99.90
23721;DHT22;42950;52.134;5.578;2024-03-06T07:48:55;5.00;99.90
23721;DHT22;42950;52.134;5.578;2024-03-06T07:51:21;5.00;99.90
23721;DHT22;42950;52.134;5.578;2024-03-06T07:53:46;5.10;99.90
23721;DHT22;42950;52.134;5.578;2024-03-06T07:56:12;5.20;99.90
23721;DHT22;42950;52.134;5.578;2024-03-06T07:58:38;5.30;99.90
23721;DHT22;42950;52.134;5.578;2024-03-06T08:01:06;5.30;99.90
23721;DHT22;42950;52.134;5.578;2024-03-06T08:03:33;5.40;99.90
23721;DHT22;42950;52.134;5.578;2024-03-06T08:06:00;5.50;99.90
23721;DHT22;42950;52.134;5.578;2024-03-06T08:08:25;5.50;99.90
23721;DHT22;42950;52.134;5.578;2024-03-06T08:10:51;5.60;99.90
23721;DHT22;42950;52.134;5.578;2024-03-06T08:13:17;5.70;99.90
23721;DHT22;42950;52.134;5.578;2024-03-06T08:15:45;5.80;99.90
23721;DHT22;42950;52.134;5.578;2024-03-06T08:18:12;5.80;99.90
23721;DHT22;42950;52.134;5.578;2024-03-06T08:20:48;6.00;99.90
23721;DHT22;42950;52.134;5.578;2024-03-06T08:23:13;6.00;99.90
23721;DHT22;42950;52.134;5.578;2024-03-06T08:25:39;6.10;99.90
23721;DHT22;42950;52.134;5.578;2024-03-06T08:28:06;6.20;99.90
23721;DHT22;42950;52.134;5.578;2024-03-06T08:30:33;6.40;99.90
23721;DHT22;42950;52.134;5.578;2024-03-06T08:32:59;6.40;99.90
23721;DHT22;42950;52.134;5.578;2024-03-06T08:35:26;6.50;99.90
23721;DHT22;42950;52.134;5.578;2024-03-06T08:37:52;6.40;99.90
23721;DHT22;42950;52.134;5.578;2024-03-06T08:40:18;6.50;99.90
23721;DHT22;42950;52.134;5.578;2024-03-06T08:42:47;6.40;99.90
23721;DHT22;42950;52.134;5.578;2024-03-06T08:45:14;6.40;99.90
23721;DHT22;42950;52.134;5.578;2024-03-06T08:47:41;6.40;99.90
23721;DHT22;42950;52.134;5.578;2024-03-06T08:50:06;6.50;99.90
23721;DHT22;42950;52.134;5.578;2024-03-06T08:52:33;6.60;99.90
23721;DHT22;42950;52.134;5.578;2024-03-06T08:55:02;6.60;99.90
23721;DHT22;42950;52.134;5.578;2024-03-06T08:57:32;6.60;99.90
23721;DHT22;42950;52.134;5.578;2024-03-06T08:59:58;6.70;99.90
23721;DHT22;42950;52.134;5.578;2024-03-06T09:02:24;6.70;99.90
23721;DHT22;42950;52.134;5.578;2024-03-06T09:04:49;6.70;99.90
23721;DHT22;42950;52.134;5.578;2024-03-06T09:07:17;6.70;99.90
23721;DHT22;42950;52.134;5.578;2024-03-06T09:09:43;6.70;99.90
23721;DHT22;42950;52.134;5.578;2024-03-06T09:12:10;6.70;99.90
23721;DHT22;42950;52.134;5.578;2024-03-06T09:14:40;6.80;99.90
23721;DHT22;42950;52.134;5.578;2024-03-06T09:17:10;6.90;99.90
23721;DHT22;42950;52.134;5.578;2024-03-06T09:19:35;7.00;99.90
23721;DHT22;42950;52.134;5.578;2024-03-06T09:22:01;7.10;99.90
23721;DHT22;42950;52.134;5.578;2024-03-06T09:24:28;7.10;99.90
23721;DHT22;42950;52.134;5.578;2024-03-06T09:26:54;7.20;99.90
23721;DHT22;42950;52.134;5.578;2024-03-06T09:29:20;7.30;99.90
23721;DHT22;42950;52.134;5.578;2024-03-06T09:31:47;7.20;99.90
23721;DHT22;42950;52.134;5.578;2024-03-06T09:34:16;7.20;99.90
23721;DHT22;42950;52.134;5.578;2024-03-06T09:36:45;7.20;99.90
23721;DHT22;42950;52.134;5.578;2024-03-06T09:39:17;7.10;99.90
23721;DHT22;42950;52.134;5.578;2024-03-06T09:41:46;7.20;99.90
23721;DHT22;42950;52.134;5.578;2024-03-06T09:44:13;7.30;99.90
23721;DHT22;42950;52.134;5.578;2024-03-06T09:46:43;7.30;99.90
23721;DHT22;42950;52.134;5.578;2024-03-06T09:49:13;7.40;99.90
23721;DHT22;42950;52.134;5.578;2024-03-06T09:51:44;7.50;99.90
23721;DHT22;42950;52.134;5.578;2024-03-06T09:54:13;7.60;99.90
23721;DHT22;42950;52.134;5.578;2024-03-06T09:56:48;7.80;99.90
23721;DHT22;42950;52.134;5.578;2024-03-06T09:59:14;7.80;99.90
23721;DHT22;42950;52.134;5.578;2024-03-06T10:01:53;7.80;99.90
23721;DHT22;42950;52.134;5.578;2024-03-06T10:06:46;8.20;99.90
23721;DHT22;42950;52.134;5.578;2024-03-06T10:09:12;8.30;99.90
23721;DHT22;42950;52.134;5.578;2024-03-06T10:11:40;8.30;99.90
23721;DHT22;42950;52.134;5.578;2024-03-06T10:14:08;8.50;99.90
23721;DHT22;42950;52.134;5.578;2024-03-06T10:16:36;8.40;99.90
23721;DHT22;42950;52.134;5.578;2024-03-06T10:19:21;8.50;99.90
23721;DHT22;42950;52.134;5.578;2024-03-06T10:21:48;8.60;99.90
23721;DHT22;42950;52.134;5.578;2024-03-06T10:24:26;8.80;99.90
23721;DHT22;42950;52.134;5.578;2024-03-06T10:26:54;8.90;99.90
23721;DHT22;42950;52.134;5.578;2024-03-06T10:29:21;9.10;99.90
23721;DHT22;42950;52.134;5.578;2024-03-06T10:31:51;9.20;99.90
23721;DHT22;42950;52.134;5.578;2024-03-06T10:34:17;9.30;99.90
23721;DHT22;42950;52.134;5.578;2024-03-06T10:36:43;9.30;99.90
23721;DHT22;42950;52.134;5.578;2024-03-06T10:39:11;9.50;99.90
23721;DHT22;42950;52.134;5.578;2024-03-06T10:41:40;9.50;99.90
23721;DHT22;42950;52.134;5.578;2024-03-06T10:44:14;9.50;99.90
23721;DHT22;42950;52.134;5.578;2024-03-06T10:46:44;9.60;99.90
23721;DHT22;42950;52.134;5.578;2024-03-06T10:49:13;9.80;99.90
23721;DHT22;42950;52.134;5.578;2024-03-06T10:51:44;9.80;99.90
23721;DHT22;42950;52.134;5.578;2024-03-06T10:54:11;9.90;99.90
23721;DHT22;42950;52.134;5.578;2024-03-06T10:56:40;9.90;99.90
23721;DHT22;42950;52.134;5.578;2024-03-06T10:59:11;9.80;99.90
23721;DHT22;42950;52.134;5.578;2024-03-06T11:01:41;9.80;99.90
23721;DHT22;42950;52.134;5.578;2024-03-06T11:04:09;9.90;99.90
23721;DHT22;42950;52.134;5.578;2024-03-06T11:06:37;9.90;99.90
23721;DHT22;42950;52.134;5.578;2024-03-06T11:09:03;10.00;99.90
23721;DHT22;42950;52.134;5.578;2024-03-06T11:11:29;10.00;99.90
23721;DHT22;42950;52.134;5.578;2024-03-06T11:14:05;10.10;99.90
23721;DHT22;42950;52.134;5.578;2024-03-06T11:16:57;10.50;99.90
23721;DHT22;42950;52.134;5.578;2024-03-06T11:19:24;10.70;99.90
23721;DHT22;42950;52.134;5.578;2024-03-06T11:21:50;10.80;99.90
23721;DHT22;42950;52.134;5.578;2024-03-06T11:24:23;10.80;99.90
23721;DHT22;42950;52.134;5.578;2024-03-06T11:27:02;11.00;99.90
23721;DHT22;42950;52.134;5.578;2024-03-06T11:29:29;11.10;99.90
23721;DHT22;42950;52.134;5.578;2024-03-06T11:32:12;11.20;99.90
23721;DHT22;42950;52.134;5.578;2024-03-06T11:34:38;11.30;99.90
23721;DHT22;42950;52.134;5.578;2024-03-06T11:37:07;11.40;99.90
23721;DHT22;42950;52.134;5.578;2024-03-06T11:39:36;11.50;99.90
23721;DHT22;42950;52.134;5.578;2024-03-06T11:42:04;11.60;99.90
23721;DHT22;42950;52.134;5.578;2024-03-06T11:44:32;11.60;99.90
23721;DHT22;42950;52.134;5.578;2024-03-06T11:47:08;11.70;99.90
23721;DHT22;42950;52.134;5.578;2024-03-06T11:49:35;11.60;99.90
23721;DHT22;42950;52.134;5.578;2024-03-06T11:52:07;11.50;99.90
23721;DHT22;42950;52.134;5.578;2024-03-06T11:54:38;11.60;99.90
23721;DHT22;42950;52.134;5.578;2024-03-06T11:57:05;11.80;99.90
23721;DHT22;42950;52.134;5.578;2024-03-06T11:59:33;11.80;99.90
23721;DHT22;42950;52.134;5.578;2024-03-06T12:02:00;11.80;99.90
23721;DHT22;42950;52.134;5.578;2024-03-06T12:04:27;12.00;99.90
23721;DHT22;42950;52.134;5.578;2024-03-06T12:06:56;12.30;99.90
23721;DHT22;42950;52.134;5.578;2024-03-06T12:09:21;12.40;99.90
23721;DHT22;42950;52.134;5.578;2024-03-06T12:11:47;12.40;99.90
23721;DHT22;42950;52.134;5.578;2024-03-06T12:14:14;12.40;99.90
23721;DHT22;42950;52.134;5.578;2024-03-06T12:16:40;12.50;99.90
23721;DHT22;42950;52.134;5.578;2024-03-06T12:19:06;12.60;99.90
23721;DHT22;42950;52.134;5.578;2024-03-06T12:21:32;12.50;99.90
23721;DHT22;42950;52.134;5.578;2024-03-06T12:24:10;12.50;99.90
23721;DHT22;42950;52.134;5.578;2024-03-06T12:26:37;12.60;99.90
23721;DHT22;42950;52.134;5.578;2024-03-06T12:29:11;12.70;99.90
23721;DHT22;42950;52.134;5.578;2024-03-06T12:31:42;12.60;99.90
23721;DHT22;42950;52.134;5.578;2024-03-06T12:34:08;12.80;99.90
23721;DHT22;42950;52.134;5.578;2024-03-06T12:36:38;12.80;99.90
23721;DHT22;42950;52.134;5.578;2024-03-06T12:39:04;13.00;99.90
23721;DHT22;42950;52.134;5.578;2024-03-06T12:41:39;13.10;99.90
23721;DHT22;42950;52.134;5.578;2024-03-06T12:44:04;13.30;99.90
23721;DHT22;42950;52.134;5.578;2024-03-06T12:46:32;13.40;99.90
23721;DHT22;42950;52.134;5.578;2024-03-06T12:48:57;13.40;99.90
23721;DHT22;42950;52.134;5.578;2024-03-06T12:51:23;13.60;99.90
23721;DHT22;42950;52.134;5.578;2024-03-06T12:53:48;13.70;99.90
23721;DHT22;42950;52.134;5.578;2024-03-06T12:56:14;13.90;99.90
23721;DHT22;42950;52.134;5.578;2024-03-06T12:58:40;14.00;99.90
23721;DHT22;42950;52.134;5.578;2024-03-06T13:01:06;14.10;99.90
23721;DHT22;42950;52.134;5.578;2024-03-06T13:03:32;14.20;99.90
23721;DHT22;42950;52.134;5.578;2024-03-06T13:05:58;14.00;99.90
23721;DHT22;42950;52.134;5.578;2024-03-06T13:08:23;13.80;99.90
23721;DHT22;42950;52.134;5.578;2024-03-06T13:10:49;13.80;99.90
23721;DHT22;42950;52.134;5.578;2024-03-06T13:13:14;13.80;99.90
23721;DHT22;42950;52.134;5.578;2024-03-06T13:15:40;14.00;99.90
23721;DHT22;42950;52.134;5.578;2024-03-06T13:18:06;14.10;99.90
23721;DHT22;42950;52.134;5.578;2024-03-06T13:20:33;14.00;99.90
23721;DHT22;42950;52.134;5.578;2024-03-06T13:22:59;13.90;99.90
23721;DHT22;42950;52.134;5.578;2024-03-06T13:25:25;14.10;99.90
23721;DHT22;42950;52.134;5.578;2024-03-06T13:27:51;14.30;99.90
23721;DHT22;42950;52.134;5.578;2024-03-06T13:30:20;14.30;99.90
23721;DHT22;42950;52.134;5.578;2024-03-06T13:32:47;14.30;99.90
23721;DHT22;42950;52.134;5.578;2024-03-06T13:35:13;14.30;99.90
23721;DHT22;42950;52.134;5.578;2024-03-06T13:37:45;14.10;99.90
23721;DHT22;42950;52.134;5.578;2024-03-06T13:40:11;14.00;99.90
23721;DHT22;42950;52.134;5.578;2024-03-06T13:42:39;14.10;99.90
23721;DHT22;42950;52.134;5.578;2024-03-06T13:45:06;14.30;99.90
23721;DHT22;42950;52.134;5.578;2024-03-06T13:47:43;14.30;99.90
23721;DHT22;42950;52.134;5.578;2024-03-06T13:50:13;14.20;99.90
23721;DHT22;42950;52.134;5.578;2024-03-06T13:52:43;14.30;99.90
23721;DHT22;42950;52.134;5.578;2024-03-06T13:55:09;14.30;99.90
23721;DHT22;42950;52.134;5.578;2024-03-06T13:57:35;14.30;99.90
23721;DHT22;42950;52.134;5.578;2024-03-06T14:00:03;14.20;99.90
23721;DHT22;42950;52.134;5.578;2024-03-06T14:02:30;14.10;99.90
23721;DHT22;42950;52.134;5.578;2024-03-06T14:04:56;14.00;99.90
23721;DHT22;42950;52.134;5.578;2024-03-06T14:07:22;14.10;99.90
23721;DHT22;42950;52.134;5.578;2024-03-06T14:09:49;14.40;99.90
23721;DHT22;42950;52.134;5.578;2024-03-06T14:12:15;14.70;99.90
23721;DHT22;42950;52.134;5.578;2024-03-06T14:14:40;14.70;99.90
23721;DHT22;42950;52.134;5.578;2024-03-06T14:17:06;14.80;99.90
23721;DHT22;42950;52.134;5.578;2024-03-06T14:19:31;15.00;99.90
23721;DHT22;42950;52.134;5.578;2024-03-06T14:22:00;14.80;99.90
23721;DHT22;42950;52.134;5.578;2024-03-06T14:24:26;14.70;99.90
23721;DHT22;42950;52.134;5.578;2024-03-06T14:26:51;14.60;99.90
23721;DHT22;42950;52.134;5.578;2024-03-06T14:29:17;14.50;99.90
23721;DHT22;42950;52.134;5.578;2024-03-06T14:31:43;14.40;99.90
23721;DHT22;42950;52.134;5.578;2024-03-06T14:34:09;14.40;99.90
23721;DHT22;42950;52.134;5.578;2024-03-06T14:36:39;14.40;99.90
23721;DHT22;42950;52.134;5.578;2024-03-06T14:39:05;14.50;99.90
23721;DHT22;42950;52.134;5.578;2024-03-06T14:41:30;14.40;99.90
23721;DHT22;42950;52.134;5.578;2024-03-06T14:43:56;14.50;99.90
23721;DHT22;42950;52.134;5.578;2024-03-06T14:46:22;14.60;99.90
23721;DHT22;42950;52.134;5.578;2024-03-06T14:48:47;14.70;99.90
23721;DHT22;42950;52.134;5.578;2024-03-06T14:51:13;14.50;99.90
23721;DHT22;42950;52.134;5.578;2024-03-06T14:53:39;14.40;99.90
23721;DHT22;42950;52.134;5.578;2024-03-06T14:56:05;14.30;99.90
23721;DHT22;42950;52.134;5.578;2024-03-06T14:58:30;14.40;99.90
23721;DHT22;42950;52.134;5.578;2024-03-06T15:00:56;14.30;99.90
23721;DHT22;42950;52.134;5.578;2024-03-06T15:03:21;14.10;99.90
23721;DHT22;42950;52.134;5.578;2024-03-06T15:05:47;14.20;99.90
23721;DHT22;42950;52.134;5.578;2024-03-06T15:08:13;14.30;99.90
23721;DHT22;42950;52.134;5.578;2024-03-06T15:10:39;14.40;99.90
23721;DHT22;42950;52.134;5.578;2024-03-06T15:13:06;14.40;99.90
23721;DHT22;42950;52.134;5.578;2024-03-06T15:15:33;14.30;99.90
23721;DHT22;42950;52.134;5.578;2024-03-06T15:17:59;14.40;99.90
23721;DHT22;42950;52.134;5.578;2024-03-06T15:20:25;14.40;99.90
23721;DHT22;42950;52.134;5.578;2024-03-06T15:22:50;14.50;99.90
23721;DHT22;42950;52.134;5.578;2024-03-06T15:25:17;14.60;99.90
23721;DHT22;42950;52.134;5.578;2024-03-06T15:27:43;14.70;99.90
23721;DHT22;42950;52.134;5.578;2024-03-06T15:30:09;14.80;99.90
23721;DHT22;42950;52.134;5.578;2024-03-06T15:32:36;14.80;99.90
23721;DHT22;42950;52.134;5.578;2024-03-06T15:35:02;14.90;99.90
23721;DHT22;42950;52.134;5.578;2024-03-06T15:37:32;14.80;99.90
23721;DHT22;42950;52.134;5.578;2024-03-06T15:39:58;14.50;99.90
23721;DHT22;42950;52.134;5.578;2024-03-06T15:42:24;14.50;99.90